createdAt,value
2023-03-12T00:00:27.036Z,12.73
2023-03-12T00:01:33.498Z,12.07
2023-03-12T00:02:36.160Z,13.43
2023-03-12T00:03:40.436Z,12.00
2023-03-12T00:04:45.918Z,17.10
2023-03-12T00:05:48.530Z,12.57
2023-03-12T00:06:51.309Z,12.65
2023-03-12T00:07:54.316Z,21.13
2023-03-12T00:08:56.941Z,17.27
2023-03-12T00:09:59.498Z,12.63
2023-03-12T00:11:07.298Z,12.38
2023-03-12T00:12:10.105Z,11.60
2023-03-12T00:13:12.726Z,10.70
2023-03-12T00:14:15.612Z,12.98
2023-03-12T00:15:18.269Z,11.45
2023-03-12T00:16:22.206Z,11.77
2023-03-12T00:17:24.903Z,8.75
2023-03-12T00:18:27.541Z,12.02
2023-03-12T00:19:30.140Z,14.48
2023-03-12T00:20:33.087Z,14.98
2023-03-12T00:21:35.704Z,14.70
2023-03-12T00:22:38.511Z,11.70
2023-03-12T00:23:41.346Z,11.82
2023-03-12T00:24:43.891Z,11.82
2023-03-12T00:25:47.032Z,14.00
2023-03-12T00:26:49.764Z,10.98
2023-03-12T00:27:52.504Z,11.38
2023-03-12T00:28:55.074Z,17.95
2023-03-12T00:29:57.734Z,13.55
2023-03-12T00:31:00.673Z,15.30
2023-03-12T00:32:03.316Z,11.93
2023-03-12T00:33:05.850Z,13.00
2023-03-12T00:34:09.344Z,15.15
2023-03-12T00:35:11.923Z,10.32
2023-03-12T00:36:14.594Z,13.95
2023-03-12T00:37:17.174Z,14.05
2023-03-12T00:38:19.817Z,13.93
2023-03-12T00:39:23.046Z,13.80
2023-03-12T00:40:25.589Z,13.70
2023-03-12T00:41:28.811Z,12.07
2023-03-12T00:42:34.314Z,9.85
2023-03-12T00:43:37.477Z,11.55
2023-03-12T00:44:40.200Z,11.32
2023-03-12T00:45:42.813Z,11.45
2023-03-12T00:46:45.500Z,11.63
2023-03-12T00:47:48.344Z,14.75
2023-03-12T00:48:51.189Z,11.43
2023-03-12T00:49:53.933Z,13.82
2023-03-12T00:50:56.519Z,11.82
2023-03-12T00:51:59.222Z,9.55
2023-03-12T00:53:01.915Z,9.98
2023-03-12T00:54:05.330Z,9.50
2023-03-12T00:55:08.354Z,10.23
2023-03-12T00:56:11.135Z,15.70
2023-03-12T00:57:13.818Z,11.95
2023-03-12T00:58:16.452Z,10.55
2023-03-12T00:59:19.104Z,14.13
2023-03-12T01:00:21.927Z,8.82
2023-03-12T01:01:24.967Z,9.07
2023-03-12T01:02:27.627Z,14.27
2023-03-12T01:03:30.587Z,10.90
2023-03-12T01:04:34.086Z,12.23
2023-03-12T01:05:37.939Z,7.82
2023-03-12T01:06:40.842Z,10.63
2023-03-12T01:07:43.901Z,11.30
2023-03-12T01:08:46.596Z,10.35
2023-03-12T01:09:49.190Z,9.70
2023-03-12T01:10:52.218Z,15.80
2023-03-12T01:11:54.966Z,10.63
2023-03-12T01:12:57.564Z,10.98
2023-03-12T01:14:01.274Z,12.73
2023-03-12T01:15:04.844Z,10.40
2023-03-12T01:16:08.285Z,11.43
2023-03-12T01:17:10.916Z,9.32
2023-03-12T01:18:13.957Z,9.82
2023-03-12T01:19:16.618Z,12.18
2023-03-12T01:20:19.290Z,8.73
2023-03-12T01:21:21.892Z,11.93
2023-03-12T01:22:24.637Z,9.13
2023-03-12T01:23:27.364Z,10.48
2023-03-12T01:24:29.924Z,15.15
2023-03-12T01:25:34.125Z,9.65
2023-03-12T01:26:36.777Z,14.27
2023-03-12T01:27:39.545Z,10.20
2023-03-12T01:28:42.292Z,10.68
2023-03-12T01:29:45.173Z,8.90
2023-03-12T01:30:48.400Z,8.95
2023-03-12T01:31:52.398Z,9.57
2023-03-12T01:32:55.054Z,10.20
2023-03-12T01:33:58.486Z,11.85
2023-03-12T01:35:01.255Z,10.80
2023-03-12T01:36:04.818Z,8.25
2023-03-12T01:37:08.013Z,9.18
2023-03-12T01:38:15.470Z,9.27
2023-03-12T01:39:18.109Z,9.45
2023-03-12T01:40:25.569Z,9.82
2023-03-12T01:41:32.303Z,8.45
2023-03-12T01:42:34.881Z,9.57
2023-03-12T01:43:39.460Z,9.95
2023-03-12T01:44:59.930Z,8.05
2023-03-12T01:46:06.482Z,6.15
2023-03-12T01:47:11.766Z,11.95
2023-03-12T01:48:14.409Z,11.93
2023-03-12T01:49:20.667Z,10.70
2023-03-12T01:50:23.458Z,8.45
2023-03-12T01:51:31.208Z,9.10
2023-03-12T01:52:37.507Z,9.20
2023-03-12T01:53:44.888Z,10.57
2023-03-12T01:54:52.512Z,9.63
2023-03-12T01:55:55.305Z,12.93
2023-03-12T01:56:58.380Z,14.70
2023-03-12T01:58:02.060Z,10.93
2023-03-12T01:59:16.315Z,7.70
2023-03-12T02:00:22.323Z,7.40
2023-03-12T02:01:26.573Z,8.90
2023-03-12T02:02:30.537Z,9.48
2023-03-12T02:03:36.312Z,7.13
2023-03-12T02:04:39.477Z,10.27
2023-03-12T02:06:16.992Z,10.70
2023-03-12T02:07:19.696Z,7.25
2023-03-12T02:08:24.271Z,6.40
2023-03-12T02:09:26.980Z,7.93
2023-03-12T02:10:29.563Z,10.10
2023-03-12T02:11:32.387Z,7.63
2023-03-12T02:12:35.405Z,9.32
2023-03-12T02:13:38.223Z,9.00
2023-03-12T02:14:41.910Z,7.32
2023-03-12T02:15:44.774Z,11.18
2023-03-12T02:16:47.725Z,7.90
2023-03-12T02:17:50.473Z,9.70
2023-03-12T02:18:55.169Z,8.68
2023-03-12T02:20:13.411Z,8.02
2023-03-12T02:21:25.040Z,14.77
2023-03-12T02:22:29.802Z,7.55
2023-03-12T02:23:41.278Z,11.05
2023-03-12T02:25:24.554Z,7.55
2023-03-12T02:26:29.667Z,8.27
2023-03-12T02:27:34.433Z,8.00
2023-03-12T02:28:42.777Z,11.60
2023-03-12T02:29:46.244Z,10.07
2023-03-12T02:30:50.722Z,11.73
2023-03-12T02:31:55.872Z,9.65
2023-03-12T02:33:00.219Z,10.18
2023-03-12T02:34:03.408Z,9.63
2023-03-12T02:35:06.939Z,14.32
2023-03-12T02:36:10.283Z,8.95
2023-03-12T02:37:12.995Z,10.38
2023-03-12T02:38:48.507Z,12.50
2023-03-12T02:39:56.583Z,9.73
2023-03-12T02:41:03.855Z,17.20
2023-03-12T02:42:06.683Z,14.55
2023-03-12T02:43:10.856Z,9.20
2023-03-12T02:44:17.523Z,9.65
2023-03-12T02:45:21.908Z,10.20
2023-03-12T02:46:25.162Z,9.52
2023-03-12T02:47:27.929Z,11.13
2023-03-12T02:48:30.552Z,8.45
2023-03-12T02:49:34.798Z,9.63
2023-03-12T02:50:37.545Z,10.98
2023-03-12T02:51:43.863Z,10.90
2023-03-12T02:52:46.749Z,10.63
2023-03-12T02:53:54.795Z,9.48
2023-03-12T02:54:57.645Z,10.90
2023-03-12T02:56:00.324Z,10.90
2023-03-12T02:57:03.120Z,12.32
2023-03-12T02:58:08.003Z,12.35
2023-03-12T02:59:11.400Z,9.15
2023-03-12T03:00:18.107Z,9.85
2023-03-12T03:01:25.492Z,9.60
2023-03-12T03:02:28.271Z,10.73
2023-03-12T03:03:30.975Z,10.45
2023-03-12T03:04:34.982Z,11.25
2023-03-12T03:05:37.736Z,11.10
2023-03-12T03:06:42.364Z,8.95
2023-03-12T03:07:45.461Z,11.93
2023-03-12T03:08:48.101Z,10.23
2023-03-12T03:09:50.771Z,12.07
2023-03-12T03:10:54.069Z,7.70
2023-03-12T03:11:56.923Z,9.18
2023-03-12T03:13:00.878Z,9.38
2023-03-12T03:14:04.423Z,10.70
2023-03-12T03:15:07.953Z,9.77
2023-03-12T03:16:12.452Z,10.07
2023-03-12T03:17:15.260Z,10.60
2023-03-12T03:18:17.956Z,9.85
2023-03-12T03:19:20.885Z,11.13
2023-03-12T03:20:24.741Z,9.65
2023-03-12T03:21:27.972Z,9.48
2023-03-12T03:22:30.811Z,8.63
2023-03-12T03:23:33.901Z,17.85
2023-03-12T03:24:36.822Z,13.07
2023-03-12T03:25:39.622Z,9.38
2023-03-12T03:26:42.303Z,9.32
2023-03-12T03:27:45.055Z,10.43
2023-03-12T03:28:47.878Z,7.18
2023-03-12T03:29:50.910Z,12.23
2023-03-12T03:30:55.135Z,9.88
2023-03-12T03:31:58.037Z,6.53
2023-03-12T03:33:00.619Z,7.60
2023-03-12T03:34:03.915Z,10.75
2023-03-12T03:35:07.170Z,10.27
2023-03-12T03:36:11.121Z,11.82
2023-03-12T03:37:19.064Z,8.95
2023-03-12T03:38:24.197Z,9.82
2023-03-12T03:39:29.068Z,9.55
2023-03-12T03:40:31.638Z,7.53
2023-03-12T03:41:34.661Z,11.18
2023-03-12T03:42:37.636Z,11.27
2023-03-12T03:43:40.375Z,7.55
2023-03-12T03:44:43.241Z,9.93
2023-03-12T03:45:45.899Z,13.90
2023-03-12T03:46:49.533Z,9.38
2023-03-12T03:47:52.267Z,7.68
2023-03-12T03:48:54.939Z,7.88
2023-03-12T03:49:58.624Z,7.22
2023-03-12T03:51:05.410Z,11.73
2023-03-12T03:52:10.411Z,7.57
2023-03-12T03:53:13.074Z,7.55
2023-03-12T03:54:16.153Z,9.68
2023-03-12T03:55:20.284Z,10.00
2023-03-12T03:56:22.880Z,10.10
2023-03-12T03:57:26.861Z,5.63
2023-03-12T03:58:29.605Z,6.60
2023-03-12T03:59:32.137Z,7.68
2023-03-12T04:00:34.910Z,10.20
2023-03-12T04:01:37.546Z,5.82
2023-03-12T04:02:40.142Z,8.80
2023-03-12T04:03:44.509Z,10.65
2023-03-12T04:04:47.070Z,7.05
2023-03-12T04:05:55.812Z,6.38
2023-03-12T04:06:58.861Z,13.82
2023-03-12T04:08:03.337Z,6.47
2023-03-12T04:09:08.150Z,5.10
2023-03-12T04:10:13.172Z,6.15
2023-03-12T04:11:18.424Z,5.85
2023-03-12T04:12:24.075Z,8.98
2023-03-12T04:13:26.720Z,9.50
2023-03-12T04:14:29.324Z,4.93
2023-03-12T04:15:32.079Z,7.95
2023-03-12T04:16:35.045Z,8.73
2023-03-12T04:17:38.350Z,4.35
2023-03-12T04:18:41.397Z,5.13
2023-03-12T04:19:44.112Z,8.75
2023-03-12T04:20:46.935Z,5.85
2023-03-12T04:21:49.602Z,5.22
2023-03-12T04:22:52.195Z,7.57
2023-03-12T04:23:54.693Z,5.03
2023-03-12T04:25:00.736Z,8.27
2023-03-12T04:26:03.679Z,3.65
2023-03-12T04:27:06.355Z,9.07
2023-03-12T04:28:10.251Z,6.03
2023-03-12T04:29:14.629Z,5.57
2023-03-12T04:30:17.829Z,5.72
2023-03-12T04:31:20.961Z,6.93
2023-03-12T04:32:29.319Z,4.57
2023-03-12T04:33:35.062Z,4.90
2023-03-12T04:34:37.759Z,5.28
2023-03-12T04:35:40.489Z,7.50
2023-03-12T04:36:43.180Z,5.25
2023-03-12T04:37:45.986Z,6.22
2023-03-12T04:38:48.544Z,6.03
2023-03-12T04:39:53.152Z,7.57
2023-03-12T04:41:09.770Z,7.65
2023-03-12T04:42:14.772Z,4.85
2023-03-12T04:43:21.111Z,8.60
2023-03-12T04:44:24.238Z,8.75
2023-03-12T04:45:27.124Z,7.82
2023-03-12T04:46:30.418Z,4.40
2023-03-12T04:47:34.315Z,4.47
2023-03-12T04:48:37.198Z,6.07
2023-03-12T04:49:40.211Z,5.18
2023-03-12T04:50:43.703Z,9.50
2023-03-12T04:51:46.509Z,4.50
2023-03-12T04:52:49.165Z,5.80
2023-03-12T04:53:52.219Z,3.90
2023-03-12T04:54:55.522Z,7.75
2023-03-12T04:55:58.386Z,11.07
2023-03-12T04:57:01.098Z,6.90
2023-03-12T04:58:03.659Z,6.88
2023-03-12T04:59:06.379Z,8.52
2023-03-12T05:00:13.325Z,8.30
2023-03-12T05:01:30.872Z,8.10
2023-03-12T05:02:33.560Z,8.45
2023-03-12T05:03:36.753Z,6.88
2023-03-12T05:04:39.477Z,9.55
2023-03-12T05:05:42.344Z,6.00
2023-03-12T05:06:45.300Z,4.68
2023-03-12T05:07:47.800Z,6.47
2023-03-12T05:08:51.470Z,10.38
2023-03-12T05:09:54.071Z,10.25
2023-03-12T05:10:57.332Z,15.45
2023-03-12T05:12:00.442Z,5.03
2023-03-12T05:13:03.172Z,7.45
2023-03-12T05:14:05.963Z,6.75
2023-03-12T05:15:09.132Z,6.10
2023-03-12T05:16:13.014Z,4.72
2023-03-12T05:17:16.149Z,6.82
2023-03-12T05:18:20.778Z,4.50
2023-03-12T05:19:23.675Z,3.97
2023-03-12T05:20:26.289Z,5.18
2023-03-12T05:21:28.892Z,7.05
2023-03-12T05:22:33.163Z,3.45
2023-03-12T05:23:36.566Z,8.10
2023-03-12T05:24:39.320Z,5.38
2023-03-12T05:25:42.012Z,5.43
2023-03-12T05:26:44.791Z,9.90
2023-03-12T05:27:55.122Z,6.47
2023-03-12T05:28:59.396Z,7.40
2023-03-12T05:30:02.237Z,5.75
2023-03-12T05:31:10.590Z,6.75
2023-03-12T05:32:14.092Z,9.75
2023-03-12T05:33:16.742Z,9.60
2023-03-12T05:34:19.599Z,4.28
2023-03-12T05:35:27.310Z,7.55
2023-03-12T05:36:30.012Z,4.97
2023-03-12T05:37:32.760Z,7.25
2023-03-12T05:38:36.041Z,4.53
2023-03-12T05:39:38.821Z,4.38
2023-03-12T05:40:41.924Z,9.65
2023-03-12T05:41:44.532Z,6.65
2023-03-12T05:42:51.438Z,10.60
2023-03-12T05:43:56.363Z,4.60
2023-03-12T05:44:59.402Z,4.75
2023-03-12T05:46:04.150Z,7.82
2023-03-12T05:47:08.160Z,2.92
2023-03-12T05:48:10.740Z,5.07
2023-03-12T05:49:13.826Z,2.67
2023-03-12T05:50:16.929Z,7.93
2023-03-12T05:51:19.923Z,5.40
2023-03-12T05:52:22.643Z,5.25
2023-03-12T05:53:25.584Z,5.90
2023-03-12T05:54:29.496Z,3.88
2023-03-12T05:55:36.591Z,5.25
2023-03-12T05:56:39.760Z,7.45
2023-03-12T05:57:43.094Z,4.40
2023-03-12T05:58:49.593Z,8.85
2023-03-12T05:59:53.800Z,5.15
2023-03-12T06:00:56.570Z,5.15
2023-03-12T06:01:59.200Z,4.30
2023-03-12T06:03:01.986Z,4.40
2023-03-12T06:04:04.849Z,6.45
2023-03-12T06:05:09.322Z,7.68
2023-03-12T06:06:12.444Z,6.85
2023-03-12T06:07:16.434Z,5.75
2023-03-12T06:08:18.977Z,8.48
2023-03-12T06:09:21.874Z,4.45
2023-03-12T06:10:24.614Z,7.32
2023-03-12T06:11:27.536Z,6.88
2023-03-12T06:12:30.496Z,8.40
2023-03-12T06:13:33.598Z,4.25
2023-03-12T06:14:36.336Z,4.30
2023-03-12T06:15:39.115Z,7.57
2023-03-12T06:16:42.709Z,3.35
2023-03-12T06:17:45.359Z,5.32
2023-03-12T06:18:48.271Z,3.60
2023-03-12T06:19:53.200Z,7.05
2023-03-12T06:20:56.727Z,4.20
2023-03-12T06:21:59.338Z,9.02
2023-03-12T06:23:03.496Z,3.72
2023-03-12T06:24:07.939Z,4.88
2023-03-12T06:25:20.643Z,8.40
2023-03-12T06:26:24.120Z,5.07
2023-03-12T06:27:26.759Z,29.20
2023-03-12T06:28:29.319Z,11.85
2023-03-12T06:29:31.944Z,14.98
2023-03-12T06:30:34.683Z,27.63
2023-03-12T06:31:38.975Z,21.42
2023-03-12T06:32:41.710Z,18.67
2023-03-12T06:33:44.558Z,8.23
2023-03-12T06:34:47.412Z,9.88
2023-03-12T06:35:54.438Z,12.00
2023-03-12T06:36:57.209Z,12.57
2023-03-12T06:37:59.899Z,16.75
2023-03-12T06:39:06.261Z,12.15
2023-03-12T06:40:11.120Z,14.38
2023-03-12T06:41:16.556Z,20.15
2023-03-12T06:42:20.923Z,14.95
2023-03-12T06:43:25.021Z,23.23
2023-03-12T06:44:27.732Z,17.02
2023-03-12T06:45:30.356Z,16.67
2023-03-12T06:46:33.406Z,13.73
2023-03-12T06:47:36.148Z,7.28
2023-03-12T06:48:41.509Z,13.43
2023-03-12T06:49:45.502Z,11.80
2023-03-12T06:50:48.409Z,9.48
2023-03-12T06:51:51.400Z,6.60
2023-03-12T06:52:54.015Z,10.57
2023-03-12T06:53:56.896Z,9.18
2023-03-12T06:54:59.533Z,10.65
2023-03-12T06:56:02.843Z,9.50
2023-03-12T06:57:05.665Z,8.70
2023-03-12T06:58:08.208Z,4.53
2023-03-12T06:59:10.740Z,3.80
2023-03-12T07:00:14.010Z,7.10
2023-03-12T07:01:16.701Z,4.22
2023-03-12T07:02:19.380Z,6.93
2023-03-12T07:03:22.262Z,3.08
2023-03-12T07:04:24.768Z,3.17
2023-03-12T07:05:29.992Z,5.57
2023-03-12T07:06:32.662Z,4.22
2023-03-12T07:07:35.207Z,5.20
2023-03-12T07:08:37.800Z,6.28
2023-03-12T07:09:40.464Z,6.20
2023-03-12T07:10:43.147Z,4.57
2023-03-12T07:11:45.996Z,5.65
2023-03-12T07:12:48.857Z,5.55
2023-03-12T07:13:52.082Z,4.07
2023-03-12T07:14:54.714Z,5.78
2023-03-12T07:15:57.712Z,5.45
2023-03-12T07:17:02.409Z,4.53
2023-03-12T07:18:10.517Z,5.40
2023-03-12T07:19:13.197Z,4.30
2023-03-12T07:20:16.193Z,6.53
2023-03-12T07:21:23.691Z,6.05
2023-03-12T07:22:26.622Z,7.55
2023-03-12T07:23:29.196Z,4.90
2023-03-12T07:24:31.986Z,6.55
2023-03-12T07:25:39.190Z,3.33
2023-03-12T07:26:43.715Z,7.38
2023-03-12T07:27:46.271Z,5.05
2023-03-12T07:28:49.144Z,5.97
2023-03-12T07:29:52.869Z,7.63
2023-03-12T07:31:04.314Z,3.85
2023-03-12T07:32:07.189Z,4.60
2023-03-12T07:33:12.170Z,3.13
2023-03-12T07:34:15.547Z,5.68
2023-03-12T07:35:18.292Z,5.10
2023-03-12T07:36:21.089Z,4.40
2023-03-12T07:37:26.879Z,4.85
2023-03-12T07:38:29.843Z,4.88
2023-03-12T07:39:32.613Z,7.20
2023-03-12T07:40:35.934Z,5.32
2023-03-12T07:41:39.157Z,4.97
2023-03-12T07:42:41.872Z,3.40
2023-03-12T07:43:44.821Z,5.63
2023-03-12T07:44:47.672Z,4.95
2023-03-12T07:45:50.811Z,7.22
2023-03-12T07:46:53.900Z,4.50
2023-03-12T07:47:56.528Z,6.25
2023-03-12T07:48:59.227Z,3.72
2023-03-12T07:50:02.275Z,4.32
2023-03-12T07:51:05.432Z,4.38
2023-03-12T07:52:11.465Z,7.75
2023-03-12T07:53:14.047Z,4.32
2023-03-12T07:54:16.643Z,1.98
2023-03-12T07:55:19.874Z,4.32
2023-03-12T07:56:22.916Z,2.25
2023-03-12T07:57:26.055Z,5.55
2023-03-12T07:58:28.980Z,4.40
2023-03-12T07:59:31.846Z,3.92
2023-03-12T08:00:34.555Z,4.20
2023-03-12T08:01:37.315Z,5.38
2023-03-12T08:02:40.228Z,6.75
2023-03-12T08:03:43.289Z,4.28
2023-03-12T08:04:46.879Z,2.95
2023-03-12T08:06:00.475Z,4.15
2023-03-12T08:07:03.852Z,5.18
2023-03-12T08:08:07.015Z,8.50
2023-03-12T08:09:10.301Z,3.63
2023-03-12T08:10:13.045Z,5.88
2023-03-12T08:11:15.945Z,13.45
2023-03-12T08:12:19.157Z,5.95
2023-03-12T08:13:23.797Z,5.72
2023-03-12T08:14:27.186Z,6.82
2023-03-12T08:15:29.939Z,4.72
2023-03-12T08:16:32.805Z,10.25
2023-03-12T08:17:35.664Z,6.03
2023-03-12T08:18:38.375Z,7.53
2023-03-12T08:19:42.548Z,9.98
2023-03-12T08:20:45.446Z,4.40
2023-03-12T08:21:48.055Z,7.15
2023-03-12T08:22:50.681Z,7.95
2023-03-12T08:23:53.353Z,3.35
2023-03-12T08:24:56.181Z,5.55
2023-03-12T08:25:58.949Z,4.65
2023-03-12T08:27:01.854Z,6.22
2023-03-12T08:28:05.013Z,7.05
2023-03-12T08:29:07.621Z,5.80
2023-03-12T08:30:10.951Z,6.65
2023-03-12T08:31:14.794Z,4.20
2023-03-12T08:32:17.386Z,3.58
2023-03-12T08:33:21.594Z,6.60
2023-03-12T08:34:24.312Z,4.60
2023-03-12T08:35:27.326Z,5.38
2023-03-12T08:36:30.173Z,5.93
2023-03-12T08:37:33.116Z,3.80
2023-03-12T08:38:35.952Z,6.90
2023-03-12T08:39:38.675Z,5.93
2023-03-12T08:40:41.415Z,4.60
2023-03-12T08:41:44.308Z,9.30
2023-03-12T08:42:46.865Z,3.55
2023-03-12T08:43:49.708Z,5.57
2023-03-12T08:44:52.358Z,6.22
2023-03-12T08:45:56.495Z,4.55
2023-03-12T08:46:59.142Z,3.80
2023-03-12T08:48:02.604Z,4.00
2023-03-12T08:49:05.294Z,5.32
2023-03-12T08:50:10.669Z,4.57
2023-03-12T08:51:16.361Z,10.75
2023-03-12T08:52:19.926Z,3.25
2023-03-12T08:53:22.992Z,6.28
2023-03-12T08:54:25.781Z,3.97
2023-03-12T08:55:28.490Z,2.95
2023-03-12T08:56:32.716Z,4.78
2023-03-12T08:57:35.585Z,4.63
2023-03-12T08:58:38.293Z,6.70
2023-03-12T08:59:41.056Z,7.18
2023-03-12T09:00:44.068Z,5.28
2023-03-12T09:01:46.799Z,3.33
2023-03-12T09:02:52.144Z,6.00
2023-03-12T09:03:55.453Z,10.70
2023-03-12T09:04:58.052Z,8.40
2023-03-12T09:06:16.819Z,5.30
2023-03-12T09:07:19.824Z,3.45
2023-03-12T09:08:22.340Z,5.80
2023-03-12T09:09:25.044Z,6.47
2023-03-12T09:10:30.701Z,4.32
2023-03-12T09:11:35.238Z,8.25
2023-03-12T09:12:37.815Z,9.25
2023-03-12T09:14:03.914Z,6.18
2023-03-12T09:15:05.163Z,4.85
2023-03-12T09:16:08.278Z,7.95
2023-03-12T09:17:10.942Z,5.95
2023-03-12T09:18:14.345Z,5.30
2023-03-12T09:19:16.991Z,8.38
2023-03-12T09:20:20.071Z,5.60
2023-03-12T09:21:22.747Z,2.65
2023-03-12T09:22:25.379Z,4.03
2023-03-12T09:23:29.065Z,3.55
2023-03-12T09:24:31.765Z,9.55
2023-03-12T09:25:34.426Z,5.57
2023-03-12T09:26:36.990Z,9.30
2023-03-12T09:27:41.304Z,7.80
2023-03-12T09:28:44.974Z,4.43
2023-03-12T09:29:59.367Z,6.43
2023-03-12T09:31:06.463Z,2.55
2023-03-12T09:32:10.186Z,4.15
2023-03-12T09:33:15.193Z,5.72
2023-03-12T09:34:17.844Z,4.65
2023-03-12T09:35:20.721Z,3.42
2023-03-12T09:36:23.360Z,4.97
2023-03-12T09:37:26.241Z,5.78
2023-03-12T09:38:31.880Z,4.30
2023-03-12T09:39:34.644Z,3.88
2023-03-12T09:40:39.960Z,4.60
2023-03-12T09:41:45.115Z,5.82
2023-03-12T09:42:51.268Z,6.15
2023-03-12T09:43:59.266Z,4.28
2023-03-12T09:45:04.667Z,4.47
2023-03-12T09:46:18.400Z,5.68
2023-03-12T09:47:30.179Z,5.50
2023-03-12T09:48:35.255Z,3.13
2023-03-12T09:49:49.831Z,6.03
2023-03-12T09:50:52.773Z,4.30
2023-03-12T09:51:57.744Z,5.07
2023-03-12T09:53:26.100Z,6.45
2023-03-12T09:54:42.984Z,5.00
2023-03-12T09:55:48.318Z,7.60
2023-03-12T09:56:52.950Z,6.82
2023-03-12T09:57:56.420Z,5.28
2023-03-12T09:58:59.244Z,3.63
2023-03-12T10:00:02.211Z,4.53
2023-03-12T10:01:40.448Z,3.55
2023-03-12T10:02:55.107Z,6.10
2023-03-12T10:04:06.361Z,5.50
2023-03-12T10:05:34.401Z,3.03
2023-03-12T10:06:53.041Z,6.88
2023-03-12T10:08:21.309Z,2.30
2023-03-12T10:10:29.166Z,4.30
2023-03-12T10:11:44.072Z,3.58
2023-03-12T10:13:01.739Z,4.78
2023-03-12T10:14:24.288Z,4.90
2023-03-12T10:15:48.792Z,5.90
2023-03-12T10:17:36.247Z,3.35
2023-03-12T10:18:55.568Z,6.20
2023-03-12T10:20:19.472Z,4.55
2023-03-12T10:21:49.345Z,5.35
2023-03-12T10:23:13.752Z,8.55
2023-03-12T10:24:37.986Z,7.68
2023-03-12T10:26:02.419Z,2.75
2023-03-12T10:27:11.574Z,4.40
2023-03-12T10:28:38.541Z,6.40
2023-03-12T10:29:46.284Z,6.47
2023-03-12T10:31:01.015Z,4.57
2023-03-12T10:32:30.461Z,6.18
2023-03-12T10:33:57.070Z,3.92
2023-03-12T10:35:07.441Z,2.97
2023-03-12T10:36:15.671Z,3.67
2023-03-12T10:37:22.996Z,5.65
2023-03-12T10:38:29.573Z,6.10
2023-03-12T10:39:32.238Z,7.72
2023-03-12T10:40:39.046Z,4.82
2023-03-12T10:41:43.818Z,4.00
2023-03-12T10:42:46.975Z,6.20
2023-03-12T10:43:50.073Z,5.68
2023-03-12T10:44:55.165Z,6.95
2023-03-12T10:46:07.428Z,7.90
2023-03-12T10:47:39.602Z,10.27
2023-03-12T10:48:43.340Z,3.35
2023-03-12T10:49:50.593Z,6.45
2023-03-12T10:51:07.834Z,6.78
2023-03-12T10:52:18.695Z,9.38
2023-03-12T10:53:27.870Z,5.35
2023-03-12T10:54:40.636Z,7.70
2023-03-12T10:55:43.616Z,8.13
2023-03-12T10:56:52.501Z,8.82
2023-03-12T10:57:55.176Z,8.35
2023-03-12T10:58:59.980Z,5.35
2023-03-12T11:00:09.021Z,7.10
2023-03-12T11:01:24.932Z,4.05
2023-03-12T11:02:41.814Z,4.65
2023-03-12T11:03:45.964Z,16.48
2023-03-12T11:04:52.413Z,10.20
2023-03-12T11:05:57.249Z,11.38
2023-03-12T11:07:29.602Z,7.72
2023-03-12T11:08:35.262Z,9.07
2023-03-12T11:09:38.102Z,5.72
2023-03-12T11:10:45.728Z,5.18
2023-03-12T11:11:50.088Z,8.52
2023-03-12T11:12:56.931Z,7.50
2023-03-12T11:14:15.972Z,7.85
2023-03-12T11:15:42.648Z,8.18
2023-03-12T11:16:45.355Z,8.35
2023-03-12T11:17:48.163Z,7.35
2023-03-12T11:19:03.760Z,8.88
2023-03-12T11:20:22.135Z,7.00
2023-03-12T11:21:24.758Z,10.02
2023-03-12T11:22:33.433Z,6.55
2023-03-12T11:23:38.748Z,6.82
2023-03-12T11:25:02.552Z,7.28
2023-03-12T11:26:16.613Z,6.50
2023-03-12T11:27:30.758Z,5.97
2023-03-12T11:28:41.942Z,6.78
2023-03-12T11:29:48.757Z,6.95
2023-03-12T11:30:54.270Z,4.53
2023-03-12T11:31:59.597Z,3.72
2023-03-12T11:33:02.547Z,5.50
2023-03-12T11:34:22.062Z,3.78
2023-03-12T11:35:39.681Z,3.85
2023-03-12T11:37:30.225Z,4.50
2023-03-12T11:38:54.645Z,3.85
2023-03-12T11:40:18.630Z,6.25
2023-03-12T11:41:49.595Z,5.35
2023-03-12T11:43:19.482Z,8.82
2023-03-12T11:44:29.045Z,4.30
2023-03-12T11:45:34.836Z,9.10
2023-03-12T11:47:05.445Z,15.05
2023-03-12T11:48:33.772Z,9.30
2023-03-12T11:50:07.049Z,7.07
2023-03-12T11:51:13.715Z,8.05
2023-03-12T11:52:38.856Z,7.95
2023-03-12T11:54:00.248Z,6.70
2023-03-12T11:55:28.117Z,8.23
2023-03-12T11:56:38.887Z,6.97
2023-03-12T11:59:25.439Z,5.93
2023-03-12T12:01:08.783Z,10.65
2023-03-12T12:02:25.998Z,7.63
2023-03-12T12:03:31.382Z,6.05
2023-03-12T12:05:07.999Z,5.90
2023-03-12T12:06:42.358Z,7.28
2023-03-12T12:08:22.130Z,9.30
2023-03-12T12:09:37.643Z,6.78
2023-03-12T12:11:07.018Z,10.43
2023-03-12T12:12:20.219Z,5.95
2023-03-12T12:13:38.091Z,7.15
2023-03-12T12:14:43.407Z,5.22
2023-03-12T12:15:59.525Z,9.10
2023-03-12T12:17:29.000Z,12.40
2023-03-12T12:18:36.081Z,6.65
2023-03-12T12:19:56.086Z,8.40
2023-03-12T12:21:28.543Z,6.37
2023-03-12T12:22:31.508Z,13.25
2023-03-12T12:23:59.637Z,9.73
2023-03-12T12:25:02.986Z,17.05
2023-03-12T12:26:10.127Z,8.82
2023-03-12T12:27:26.633Z,9.32
2023-03-12T12:28:54.081Z,8.95
2023-03-12T12:29:56.701Z,9.23
2023-03-12T12:31:13.240Z,6.57
2023-03-12T12:32:55.392Z,5.70
2023-03-12T12:34:24.635Z,5.63
2023-03-12T12:35:38.604Z,5.00
2023-03-12T12:36:46.151Z,6.53
2023-03-12T12:38:15.200Z,10.02
2023-03-12T12:39:30.261Z,6.55
2023-03-12T12:40:37.926Z,6.30
2023-03-12T12:41:45.900Z,7.10
2023-03-12T12:43:23.697Z,5.40
2023-03-12T12:44:33.207Z,6.85
2023-03-12T12:45:38.779Z,7.72
2023-03-12T12:46:49.310Z,12.35
2023-03-12T12:48:29.286Z,3.40
2023-03-12T12:49:50.329Z,4.65
2023-03-12T12:50:54.705Z,4.63
2023-03-12T12:52:03.722Z,4.30
2023-03-12T12:53:21.696Z,4.03
2023-03-12T12:54:31.276Z,3.75
2023-03-12T12:56:00.115Z,3.53
2023-03-12T12:57:14.962Z,7.57
2023-03-12T12:58:27.558Z,4.03
2023-03-12T12:59:40.662Z,7.47
2023-03-12T13:01:02.429Z,7.68
2023-03-12T13:02:13.510Z,7.70
2023-03-12T13:03:20.775Z,7.60
2023-03-12T13:04:35.208Z,4.93
2023-03-12T13:05:37.782Z,6.60
2023-03-12T13:07:12.320Z,9.00
2023-03-12T13:08:44.759Z,8.43
2023-03-12T13:09:52.789Z,7.85
2023-03-12T13:11:02.535Z,3.90
2023-03-12T13:12:33.059Z,7.45
2023-03-12T13:13:36.002Z,4.45
2023-03-12T13:14:43.356Z,6.95
2023-03-12T13:15:46.783Z,4.72
2023-03-12T13:16:49.876Z,5.20
2023-03-12T13:17:52.395Z,3.20
2023-03-12T13:19:08.824Z,4.75
2023-03-12T13:20:17.657Z,4.65
2023-03-12T13:21:50.250Z,4.13
2023-03-12T13:22:58.449Z,4.43
2023-03-12T13:24:23.277Z,5.35
2023-03-12T13:25:47.735Z,6.03
2023-03-12T13:26:59.471Z,5.28
2023-03-12T13:28:32.505Z,8.65
2023-03-12T13:29:37.251Z,5.10
2023-03-12T13:30:41.599Z,7.95
2023-03-12T13:31:44.821Z,4.45
2023-03-12T13:32:50.535Z,5.20
2023-03-12T13:34:00.607Z,4.95
2023-03-12T13:35:17.895Z,5.63
2023-03-12T13:36:26.736Z,6.57
2023-03-12T13:37:47.294Z,8.32
2023-03-12T13:38:57.476Z,7.70
2023-03-12T13:40:02.214Z,4.45
2023-03-12T13:41:06.253Z,12.05
2023-03-12T13:42:36.375Z,9.23
2023-03-12T13:43:38.970Z,12.63
2023-03-12T13:44:41.603Z,12.13
2023-03-12T13:46:07.025Z,10.52
2023-03-12T13:47:12.507Z,6.47
2023-03-12T13:48:17.846Z,9.18
2023-03-12T13:49:20.888Z,2.53
2023-03-12T13:50:23.620Z,8.55
2023-03-12T13:51:26.736Z,13.35
2023-03-12T13:52:40.601Z,9.27
2023-03-12T13:53:48.929Z,3.97
2023-03-12T13:55:19.159Z,7.65
2023-03-12T13:56:28.690Z,11.18
2023-03-12T13:57:38.553Z,8.77
2023-03-12T13:58:48.974Z,9.32
2023-03-12T13:59:52.026Z,6.88
2023-03-12T14:00:56.182Z,10.45
2023-03-12T14:02:02.418Z,12.23
2023-03-12T14:03:18.167Z,7.10
2023-03-12T14:04:24.052Z,10.43
2023-03-12T14:05:27.103Z,9.10
2023-03-12T14:06:30.412Z,6.25
2023-03-12T14:07:35.795Z,5.28
2023-03-12T14:08:57.048Z,2.92
2023-03-12T14:10:07.064Z,6.38
2023-03-12T14:11:33.487Z,5.18
2023-03-12T14:12:43.022Z,2.95
2023-03-12T14:13:53.818Z,4.03
2023-03-12T14:15:13.830Z,4.07
2023-03-12T14:16:27.297Z,2.90
2023-03-12T14:17:31.685Z,3.50
2023-03-12T14:18:36.317Z,6.85
2023-03-12T14:19:39.135Z,3.83
2023-03-12T14:20:42.450Z,9.65
2023-03-12T14:21:46.606Z,5.80
2023-03-12T14:22:57.123Z,10.02
2023-03-12T14:23:59.903Z,3.20
2023-03-12T14:25:15.341Z,4.65
2023-03-12T14:26:24.809Z,4.75
2023-03-12T14:27:31.179Z,3.45
2023-03-12T14:28:39.722Z,1.77
2023-03-12T14:30:18.039Z,4.53
2023-03-12T14:31:23.113Z,2.65
2023-03-12T14:32:31.445Z,4.90
2023-03-12T14:33:56.217Z,5.28
2023-03-12T14:35:13.848Z,5.88
2023-03-12T14:36:19.670Z,5.35
2023-03-12T14:37:25.558Z,5.40
2023-03-12T14:38:33.639Z,5.60
2023-03-12T14:39:46.284Z,2.55
2023-03-12T14:41:05.424Z,5.78
2023-03-12T14:42:09.107Z,6.22
2023-03-12T14:43:22.951Z,8.93
2023-03-12T14:44:27.664Z,6.65
2023-03-12T14:45:30.285Z,5.75
2023-03-12T14:46:32.980Z,7.43
2023-03-12T14:48:00.876Z,5.78
2023-03-12T14:49:03.441Z,4.80